sensor_id;sensor_type;location;lat;lon;timestamp;P1;durP1;ratioP1;P2;durP2;ratioP2
71106;SDS011;58763;47.982;11.516;2024-02-04T00:00:43;7.68;;;4.13;;
71106;SDS011;58763;47.982;11.516;2024-02-04T00:03:09;6.30;;;3.88;;
71106;SDS011;58763;47.982;11.516;2024-02-04T00:05:34;8.10;;;4.20;;
71106;SDS011;58763;47.982;11.516;2024-02-04T00:08:01;7.55;;;4.50;;
71106;SDS011;58763;47.982;11.516;2024-02-04T00:10:27;9.45;;;4.20;;
71106;SDS011;58763;47.982;11.516;2024-02-04T00:12:53;7.28;;;4.20;;
71106;SDS011;58763;47.982;11.516;2024-02-04T00:15:19;7.90;;;4.13;;
71106;SDS011;58763;47.982;11.516;2024-02-04T00:17:47;6.57;;;3.70;;
71106;SDS011;58763;47.982;11.516;2024-02-04T00:20:13;7.22;;;4.47;;
71106;SDS011;58763;47.982;11.516;2024-02-04T00:22:39;8.38;;;5.00;;
71106;SDS011;58763;47.982;11.516;2024-02-04T00:25:05;6.43;;;3.97;;
71106;SDS011;58763;47.982;11.516;2024-02-04T00:27:31;10.13;;;4.28;;
71106;SDS011;58763;47.982;11.516;2024-02-04T00:29:57;7.05;;;4.32;;
71106;SDS011;58763;47.982;11.516;2024-02-04T00:32:24;8.30;;;4.57;;
71106;SDS011;58763;47.982;11.516;2024-02-04T00:34:50;9.07;;;5.00;;
71106;SDS011;58763;47.982;11.516;2024-02-04T00:37:16;8.60;;;5.70;;
71106;SDS011;58763;47.982;11.516;2024-02-04T00:39:42;7.90;;;5.22;;
71106;SDS011;58763;47.982;11.516;2024-02-04T00:42:07;8.60;;;5.15;;
71106;SDS011;58763;47.982;11.516;2024-02-04T00:44:33;8.43;;;5.40;;
71106;SDS011;58763;47.982;11.516;2024-02-04T00:46:58;9.88;;;6.00;;
71106;SDS011;58763;47.982;11.516;2024-02-04T00:49:24;8.70;;;5.47;;
71106;SDS011;58763;47.982;11.516;2024-02-04T00:51:51;10.00;;;5.72;;
71106;SDS011;58763;47.982;11.516;2024-02-04T00:54:17;11.52;;;6.13;;
71106;SDS011;58763;47.982;11.516;2024-02-04T00:56:42;10.20;;;6.03;;
71106;SDS011;58763;47.982;11.516;2024-02-04T00:59:08;10.68;;;6.45;;
71106;SDS011;58763;47.982;11.516;2024-02-04T01:01:33;10.60;;;6.13;;
71106;SDS011;58763;47.982;11.516;2024-02-04T01:03:59;10.30;;;6.75;;
71106;SDS011;58763;47.982;11.516;2024-02-04T01:06:25;9.95;;;6.13;;
71106;SDS011;58763;47.982;11.516;2024-02-04T01:08:51;10.55;;;6.20;;
71106;SDS011;58763;47.982;11.516;2024-02-04T01:11:16;10.75;;;6.32;;
71106;SDS011;58763;47.982;11.516;2024-02-04T01:13:42;11.98;;;6.15;;
71106;SDS011;58763;47.982;11.516;2024-02-04T01:16:07;11.30;;;6.43;;
71106;SDS011;58763;47.982;11.516;2024-02-04T01:18:33;9.15;;;5.47;;
71106;SDS011;58763;47.982;11.516;2024-02-04T01:20:59;10.52;;;6.60;;
71106;SDS011;58763;47.982;11.516;2024-02-04T01:23:26;9.30;;;5.80;;
71106;SDS011;58763;47.982;11.516;2024-02-04T01:25:51;10.93;;;6.40;;
71106;SDS011;58763;47.982;11.516;2024-02-04T01:28:17;10.93;;;6.20;;
71106;SDS011;58763;47.982;11.516;2024-02-04T01:30:42;10.68;;;6.03;;
71106;SDS011;58763;47.982;11.516;2024-02-04T01:33:08;10.45;;;6.10;;
71106;SDS011;58763;47.982;11.516;2024-02-04T01:35:33;10.77;;;6.30;;
71106;SDS011;58763;47.982;11.516;2024-02-04T01:37:59;10.05;;;6.22;;
71106;SDS011;58763;47.982;11.516;2024-02-04T01:40:24;10.38;;;6.43;;
71106;SDS011;58763;47.982;11.516;2024-02-04T01:42:50;12.35;;;7.03;;
71106;SDS011;58763;47.982;11.516;2024-02-04T01:45:15;11.63;;;6.78;;
71106;SDS011;58763;47.982;11.516;2024-02-04T01:47:41;11.05;;;6.53;;
71106;SDS011;58763;47.982;11.516;2024-02-04T01:50:07;13.07;;;6.65;;
71106;SDS011;58763;47.982;11.516;2024-02-04T01:52:33;10.90;;;6.43;;
71106;SDS011;58763;47.982;11.516;2024-02-04T01:55:03;11.43;;;7.22;;
71106;SDS011;58763;47.982;11.516;2024-02-04T01:57:31;11.82;;;7.05;;
71106;SDS011;58763;47.982;11.516;2024-02-04T01:59:58;11.80;;;6.93;;
71106;SDS011;58763;47.982;11.516;2024-02-04T02:02:25;12.15;;;6.93;;
71106;SDS011;58763;47.982;11.516;2024-02-04T02:04:51;13.15;;;6.97;;
71106;SDS011;58763;47.982;11.516;2024-02-04T02:07:17;12.70;;;7.22;;
71106;SDS011;58763;47.982;11.516;2024-02-04T02:09:45;13.70;;;7.40;;
71106;SDS011;58763;47.982;11.516;2024-02-04T02:12:16;12.68;;;7.57;;
71106;SDS011;58763;47.982;11.516;2024-02-04T02:14:47;15.32;;;8.13;;
71106;SDS011;58763;47.982;11.516;2024-02-04T02:17:22;12.43;;;6.32;;
71106;SDS011;58763;47.982;11.516;2024-02-04T02:22:38;13.00;;;6.13;;
71106;SDS011;58763;47.982;11.516;2024-02-04T02:25:18;12.07;;;6.80;;
71106;SDS011;58763;47.982;11.516;2024-02-04T02:27:46;10.90;;;6.20;;
71106;SDS011;58763;47.982;11.516;2024-02-04T02:30:13;11.32;;;6.13;;
71106;SDS011;58763;47.982;11.516;2024-02-04T02:32:39;9.90;;;5.47;;
71106;SDS011;58763;47.982;11.516;2024-02-04T02:35:06;10.45;;;5.80;;
71106;SDS011;58763;47.982;11.516;2024-02-04T02:37:41;11.25;;;6.20;;
71106;SDS011;58763;47.982;11.516;2024-02-04T02:42:45;10.25;;;6.20;;
71106;SDS011;58763;47.982;11.516;2024-02-04T02:45:13;10.80;;;5.65;;
71106;SDS011;58763;47.982;11.516;2024-02-04T02:47:39;9.77;;;5.63;;
71106;SDS011;58763;47.982;11.516;2024-02-04T02:50:08;12.27;;;6.18;;
71106;SDS011;58763;47.982;11.516;2024-02-04T02:52:34;10.75;;;5.53;;
71106;SDS011;58763;47.982;11.516;2024-02-04T02:54:59;9.27;;;5.25;;
71106;SDS011;58763;47.982;11.516;2024-02-04T02:57:25;10.75;;;5.72;;
71106;SDS011;58763;47.982;11.516;2024-02-04T02:59:51;8.55;;;4.55;;
71106;SDS011;58763;47.982;11.516;2024-02-04T03:02:16;8.90;;;4.82;;
71106;SDS011;58763;47.982;11.516;2024-02-04T03:04:42;8.52;;;4.47;;
71106;SDS011;58763;47.982;11.516;2024-02-04T03:07:08;8.18;;;4.55;;
71106;SDS011;58763;47.982;11.516;2024-02-04T03:09:34;10.45;;;4.80;;
71106;SDS011;58763;47.982;11.516;2024-02-04T03:11:59;8.63;;;4.05;;
71106;SDS011;58763;47.982;11.516;2024-02-04T03:14:25;7.13;;;3.92;;
71106;SDS011;58763;47.982;11.516;2024-02-04T03:16:51;8.45;;;4.57;;
71106;SDS011;58763;47.982;11.516;2024-02-04T03:19:17;11.60;;;4.38;;
71106;SDS011;58763;47.982;11.516;2024-02-04T03:21:42;8.50;;;4.55;;
71106;SDS011;58763;47.982;11.516;2024-02-04T03:24:08;7.97;;;4.25;;
71106;SDS011;58763;47.982;11.516;2024-02-04T03:26:33;7.82;;;3.97;;
71106;SDS011;58763;47.982;11.516;2024-02-04T03:28:59;8.43;;;3.78;;
71106;SDS011;58763;47.982;11.516;2024-02-04T03:31:24;8.05;;;4.85;;
71106;SDS011;58763;47.982;11.516;2024-02-04T03:33:51;8.70;;;4.45;;
71106;SDS011;58763;47.982;11.516;2024-02-04T03:36:19;10.05;;;4.72;;
71106;SDS011;58763;47.982;11.516;2024-02-04T03:38:46;8.50;;;4.78;;
71106;SDS011;58763;47.982;11.516;2024-02-04T03:41:12;11.45;;;4.88;;
71106;SDS011;58763;47.982;11.516;2024-02-04T03:43:37;10.20;;;4.60;;
71106;SDS011;58763;47.982;11.516;2024-02-04T03:46:03;7.68;;;4.05;;
71106;SDS011;58763;47.982;11.516;2024-02-04T03:48:28;6.68;;;3.67;;
71106;SDS011;58763;47.982;11.516;2024-02-04T03:50:54;9.40;;;4.72;;
71106;SDS011;58763;47.982;11.516;2024-02-04T03:53:20;8.15;;;4.25;;
71106;SDS011;58763;47.982;11.516;2024-02-04T03:55:51;7.78;;;4.07;;
71106;SDS011;58763;47.982;11.516;2024-02-04T03:58:17;7.90;;;4.22;;
71106;SDS011;58763;47.982;11.516;2024-02-04T04:00:45;7.85;;;4.13;;
71106;SDS011;58763;47.982;11.516;2024-02-04T04:03:11;8.50;;;3.85;;
71106;SDS011;58763;47.982;11.516;2024-02-04T04:05:37;8.13;;;3.67;;
71106;SDS011;58763;47.982;11.516;2024-02-04T04:08:02;7.78;;;3.72;;
71106;SDS011;58763;47.982;11.516;2024-02-04T04:10:28;7.07;;;3.40;;
71106;SDS011;58763;47.982;11.516;2024-02-04T04:12:54;7.05;;;3.45;;
71106;SDS011;58763;47.982;11.516;2024-02-04T04:15:19;5.65;;;2.88;;
71106;SDS011;58763;47.982;11.516;2024-02-04T04:17:45;6.28;;;2.88;;
71106;SDS011;58763;47.982;11.516;2024-02-04T04:20:11;5.97;;;2.70;;
71106;SDS011;58763;47.982;11.516;2024-02-04T04:22:40;4.78;;;2.28;;
71106;SDS011;58763;47.982;11.516;2024-02-04T04:25:06;5.53;;;2.80;;
71106;SDS011;58763;47.982;11.516;2024-02-04T04:27:32;5.97;;;2.53;;
71106;SDS011;58763;47.982;11.516;2024-02-04T04:29:58;6.75;;;2.78;;
71106;SDS011;58763;47.982;11.516;2024-02-04T04:32:23;5.00;;;2.58;;
71106;SDS011;58763;47.982;11.516;2024-02-04T04:34:49;6.40;;;3.08;;
71106;SDS011;58763;47.982;11.516;2024-02-04T04:37:14;7.72;;;3.00;;
71106;SDS011;58763;47.982;11.516;2024-02-04T04:39:40;4.47;;;2.42;;
71106;SDS011;58763;47.982;11.516;2024-02-04T04:42:05;6.50;;;3.25;;
71106;SDS011;58763;47.982;11.516;2024-02-04T04:44:31;6.07;;;3.53;;
71106;SDS011;58763;47.982;11.516;2024-02-04T04:46:57;6.78;;;3.25;;
71106;SDS011;58763;47.982;11.516;2024-02-04T04:49:22;6.93;;;3.13;;
71106;SDS011;58763;47.982;11.516;2024-02-04T04:51:48;6.80;;;3.25;;
71106;SDS011;58763;47.982;11.516;2024-02-04T04:54:13;6.13;;;3.25;;
71106;SDS011;58763;47.982;11.516;2024-02-04T04:56:39;7.63;;;3.47;;
71106;SDS011;58763;47.982;11.516;2024-02-04T04:59:06;7.65;;;3.65;;
71106;SDS011;58763;47.982;11.516;2024-02-04T05:01:32;7.40;;;3.75;;
71106;SDS011;58763;47.982;11.516;2024-02-04T05:03:58;8.35;;;4.50;;
71106;SDS011;58763;47.982;11.516;2024-02-04T05:06:24;7.80;;;3.88;;
71106;SDS011;58763;47.982;11.516;2024-02-04T05:08:50;8.13;;;4.28;;
71106;SDS011;58763;47.982;11.516;2024-02-04T05:11:15;12.05;;;5.30;;
71106;SDS011;58763;47.982;11.516;2024-02-04T05:13:41;7.88;;;3.70;;
71106;SDS011;58763;47.982;11.516;2024-02-04T05:16:06;8.30;;;4.20;;
71106;SDS011;58763;47.982;11.516;2024-02-04T05:18:32;9.20;;;4.07;;
71106;SDS011;58763;47.982;11.516;2024-02-04T05:20:57;9.43;;;3.85;;
71106;SDS011;58763;47.982;11.516;2024-02-04T05:23:23;8.75;;;4.00;;
71106;SDS011;58763;47.982;11.516;2024-02-04T05:25:49;7.90;;;3.85;;
71106;SDS011;58763;47.982;11.516;2024-02-04T05:28:15;9.93;;;4.68;;
71106;SDS011;58763;47.982;11.516;2024-02-04T05:30:40;7.60;;;4.28;;
71106;SDS011;58763;47.982;11.516;2024-02-04T05:33:06;8.25;;;4.20;;
71106;SDS011;58763;47.982;11.516;2024-02-04T05:35:31;11.77;;;4.60;;
71106;SDS011;58763;47.982;11.516;2024-02-04T05:37:57;9.00;;;4.30;;
71106;SDS011;58763;47.982;11.516;2024-02-04T05:40:22;12.80;;;4.90;;
71106;SDS011;58763;47.982;11.516;2024-02-04T05:42:48;7.57;;;4.05;;
71106;SDS011;58763;47.982;11.516;2024-02-04T05:45:13;7.95;;;4.38;;
71106;SDS011;58763;47.982;11.516;2024-02-04T05:47:39;8.68;;;4.07;;
71106;SDS011;58763;47.982;11.516;2024-02-04T05:50:05;9.13;;;4.03;;
71106;SDS011;58763;47.982;11.516;2024-02-04T05:52:31;8.05;;;3.92;;
71106;SDS011;58763;47.982;11.516;2024-02-04T05:54:57;11.30;;;4.63;;
71106;SDS011;58763;47.982;11.516;2024-02-04T05:57:22;9.43;;;4.45;;
71106;SDS011;58763;47.982;11.516;2024-02-04T05:59:49;9.18;;;4.82;;
71106;SDS011;58763;47.982;11.516;2024-02-04T06:02:18;10.00;;;4.35;;
71106;SDS011;58763;47.982;11.516;2024-02-04T06:04:43;9.32;;;4.13;;
71106;SDS011;58763;47.982;11.516;2024-02-04T06:07:09;8.90;;;4.20;;
71106;SDS011;58763;47.982;11.516;2024-02-04T06:09:35;10.35;;;4.68;;
71106;SDS011;58763;47.982;11.516;2024-02-04T06:12:00;9.93;;;4.38;;
71106;SDS011;58763;47.982;11.516;2024-02-04T06:14:26;10.15;;;4.40;;
71106;SDS011;58763;47.982;11.516;2024-02-04T06:16:52;8.52;;;4.40;;
71106;SDS011;58763;47.982;11.516;2024-02-04T06:19:18;7.47;;;4.32;;
71106;SDS011;58763;47.982;11.516;2024-02-04T06:21:43;10.25;;;3.95;;
71106;SDS011;58763;47.982;11.516;2024-02-04T06:24:09;8.32;;;4.43;;
71106;SDS011;58763;47.982;11.516;2024-02-04T06:26:37;9.02;;;4.60;;
71106;SDS011;58763;47.982;11.516;2024-02-04T06:29:04;7.57;;;4.40;;
71106;SDS011;58763;47.982;11.516;2024-02-04T06:31:29;8.00;;;4.72;;
71106;SDS011;58763;47.982;11.516;2024-02-04T06:33:55;8.35;;;4.32;;
71106;SDS011;58763;47.982;11.516;2024-02-04T06:36:21;7.63;;;4.50;;
71106;SDS011;58763;47.982;11.516;2024-02-04T06:38:46;8.63;;;4.35;;
71106;SDS011;58763;47.982;11.516;2024-02-04T06:41:12;8.57;;;4.80;;
71106;SDS011;58763;47.982;11.516;2024-02-04T06:43:37;8.77;;;4.60;;
71106;SDS011;58763;47.982;11.516;2024-02-04T06:46:03;8.25;;;4.65;;
71106;SDS011;58763;47.982;11.516;2024-02-04T06:48:29;9.48;;;4.40;;
71106;SDS011;58763;47.982;11.516;2024-02-04T06:50:55;8.27;;;4.75;;
71106;SDS011;58763;47.982;11.516;2024-02-04T06:53:20;8.52;;;4.60;;
71106;SDS011;58763;47.982;11.516;2024-02-04T06:55:46;8.38;;;4.38;;
71106;SDS011;58763;47.982;11.516;2024-02-04T06:58:11;7.70;;;4.85;;
71106;SDS011;58763;47.982;11.516;2024-02-04T07:00:37;9.60;;;4.57;;
71106;SDS011;58763;47.982;11.516;2024-02-04T07:03:02;11.85;;;3.97;;
71106;SDS011;58763;47.982;11.516;2024-02-04T07:05:28;9.85;;;3.70;;
71106;SDS011;58763;47.982;11.516;2024-02-04T07:07:54;13.05;;;3.22;;
71106;SDS011;58763;47.982;11.516;2024-02-04T07:10:19;12.55;;;3.65;;
71106;SDS011;58763;47.982;11.516;2024-02-04T07:12:45;8.23;;;2.67;;
71106;SDS011;58763;47.982;11.516;2024-02-04T07:15:11;8.48;;;3.30;;
71106;SDS011;58763;47.982;11.516;2024-02-04T07:17:36;11.18;;;2.65;;
71106;SDS011;58763;47.982;11.516;2024-02-04T07:20:02;9.70;;;3.05;;
71106;SDS011;58763;47.982;11.516;2024-02-04T07:22:28;10.48;;;2.75;;
71106;SDS011;58763;47.982;11.516;2024-02-04T07:24:54;8.93;;;3.00;;
71106;SDS011;58763;47.982;11.516;2024-02-04T07:27:19;13.13;;;3.33;;
71106;SDS011;58763;47.982;11.516;2024-02-04T07:29:45;9.32;;;3.42;;
71106;SDS011;58763;47.982;11.516;2024-02-04T07:32:12;11.27;;;3.45;;
71106;SDS011;58763;47.982;11.516;2024-02-04T07:34:39;13.40;;;4.18;;
71106;SDS011;58763;47.982;11.516;2024-02-04T07:37:04;8.43;;;3.28;;
71106;SDS011;58763;47.982;11.516;2024-02-04T07:39:30;11.70;;;3.47;;
71106;SDS011;58763;47.982;11.516;2024-02-04T07:41:56;11.23;;;3.25;;
71106;SDS011;58763;47.982;11.516;2024-02-04T07:44:26;9.38;;;3.30;;
71106;SDS011;58763;47.982;11.516;2024-02-04T07:46:52;12.10;;;3.67;;
71106;SDS011;58763;47.982;11.516;2024-02-04T07:49:17;11.18;;;4.13;;
71106;SDS011;58763;47.982;11.516;2024-02-04T07:51:43;10.20;;;3.63;;
71106;SDS011;58763;47.982;11.516;2024-02-04T07:54:08;12.38;;;3.78;;
71106;SDS011;58763;47.982;11.516;2024-02-04T07:56:34;10.63;;;3.70;;
71106;SDS011;58763;47.982;11.516;2024-02-04T07:58:59;9.10;;;3.78;;
71106;SDS011;58763;47.982;11.516;2024-02-04T08:01:25;13.38;;;4.13;;
71106;SDS011;58763;47.982;11.516;2024-02-04T08:03:51;9.07;;;3.78;;
71106;SDS011;58763;47.982;11.516;2024-02-04T08:06:16;10.50;;;3.97;;
71106;SDS011;58763;47.982;11.516;2024-02-04T08:08:42;13.13;;;4.15;;
71106;SDS011;58763;47.982;11.516;2024-02-04T08:11:09;10.63;;;3.65;;
71106;SDS011;58763;47.982;11.516;2024-02-04T08:13:35;10.63;;;3.78;;
71106;SDS011;58763;47.982;11.516;2024-02-04T08:16:01;13.27;;;3.75;;
71106;SDS011;58763;47.982;11.516;2024-02-04T08:18:27;9.30;;;3.78;;
71106;SDS011;58763;47.982;11.516;2024-02-04T08:20:52;12.05;;;4.30;;
71106;SDS011;58763;47.982;11.516;2024-02-04T08:23:18;12.00;;;4.47;;
71106;SDS011;58763;47.982;11.516;2024-02-04T08:25:44;11.98;;;3.35;;
71106;SDS011;58763;47.982;11.516;2024-02-04T08:28:10;11.57;;;3.72;;
71106;SDS011;58763;47.982;11.516;2024-02-04T08:30:36;8.70;;;3.58;;
71106;SDS011;58763;47.982;11.516;2024-02-04T08:33:01;7.53;;;3.47;;
71106;SDS011;58763;47.982;11.516;2024-02-04T08:35:28;9.60;;;3.38;;
71106;SDS011;58763;47.982;11.516;2024-02-04T08:37:54;9.98;;;3.65;;
71106;SDS011;58763;47.982;11.516;2024-02-04T08:40:19;14.32;;;3.58;;
71106;SDS011;58763;47.982;11.516;2024-02-04T08:42:45;12.63;;;3.50;;
71106;SDS011;58763;47.982;11.516;2024-02-04T08:45:11;15.15;;;3.85;;
71106;SDS011;58763;47.982;11.516;2024-02-04T08:47:37;9.50;;;3.33;;
71106;SDS011;58763;47.982;11.516;2024-02-04T08:50:03;10.25;;;3.22;;
71106;SDS011;58763;47.982;11.516;2024-02-04T08:52:28;13.82;;;3.55;;
71106;SDS011;58763;47.982;11.516;2024-02-04T08:54:54;10.90;;;3.95;;
71106;SDS011;58763;47.982;11.516;2024-02-04T08:57:19;9.45;;;3.13;;
71106;SDS011;58763;47.982;11.516;2024-02-04T08:59:45;11.05;;;3.03;;
71106;SDS011;58763;47.982;11.516;2024-02-04T09:02:11;11.40;;;3.20;;
71106;SDS011;58763;47.982;11.516;2024-02-04T09:04:36;8.40;;;3.08;;
71106;SDS011;58763;47.982;11.516;2024-02-04T09:07:08;9.70;;;2.90;;
71106;SDS011;58763;47.982;11.516;2024-02-04T09:09:35;10.18;;;3.08;;
71106;SDS011;58763;47.982;11.516;2024-02-04T09:12:01;8.63;;;3.40;;
71106;SDS011;58763;47.982;11.516;2024-02-04T09:14:27;10.02;;;3.28;;
71106;SDS011;58763;47.982;11.516;2024-02-04T09:16:52;10.63;;;3.20;;
71106;SDS011;58763;47.982;11.516;2024-02-04T09:19:18;10.30;;;3.00;;
71106;SDS011;58763;47.982;11.516;2024-02-04T09:21:43;7.85;;;3.00;;
71106;SDS011;58763;47.982;11.516;2024-02-04T09:24:09;7.90;;;2.92;;
71106;SDS011;58763;47.982;11.516;2024-02-04T09:26:34;7.82;;;3.03;;
71106;SDS011;58763;47.982;11.516;2024-02-04T09:29:00;8.05;;;2.90;;
71106;SDS011;58763;47.982;11.516;2024-02-04T09:31:26;10.07;;;3.08;;
71106;SDS011;58763;47.982;11.516;2024-02-04T09:33:51;9.68;;;3.20;;
71106;SDS011;58763;47.982;11.516;2024-02-04T09:36:17;8.27;;;2.80;;
71106;SDS011;58763;47.982;11.516;2024-02-04T09:38:43;9.23;;;3.13;;
71106;SDS011;58763;47.982;11.516;2024-02-04T09:41:09;8.45;;;2.70;;
71106;SDS011;58763;47.982;11.516;2024-02-04T09:43:35;8.43;;;3.05;;
71106;SDS011;58763;47.982;11.516;2024-02-04T09:46:01;11.55;;;3.70;;
71106;SDS011;58763;47.982;11.516;2024-02-04T09:48:31;5.88;;;2.85;;
71106;SDS011;58763;47.982;11.516;2024-02-04T09:50:58;9.40;;;3.10;;
71106;SDS011;58763;47.982;11.516;2024-02-04T09:54:06;13.43;;;3.70;;
71106;SDS011;58763;47.982;11.516;2024-02-04T09:56:16;5.85;;;2.70;;
71106;SDS011;58763;47.982;11.516;2024-02-04T09:58:44;10.02;;;3.22;;
71106;SDS011;58763;47.982;11.516;2024-02-04T10:01:10;8.63;;;3.22;;
71106;SDS011;58763;47.982;11.516;2024-02-04T10:03:36;8.52;;;2.67;;
71106;SDS011;58763;47.982;11.516;2024-02-04T10:06:03;7.38;;;3.00;;
71106;SDS011;58763;47.982;11.516;2024-02-04T10:08:29;9.77;;;3.03;;
71106;SDS011;58763;47.982;11.516;2024-02-04T10:10:55;9.00;;;3.30;;
71106;SDS011;58763;47.982;11.516;2024-02-04T10:13:20;13.75;;;3.13;;
71106;SDS011;58763;47.982;11.516;2024-02-04T10:15:48;11.48;;;3.97;;
71106;SDS011;58763;47.982;11.516;2024-02-04T10:18:14;10.75;;;3.63;;
71106;SDS011;58763;47.982;11.516;2024-02-04T10:20:39;9.00;;;3.40;;
71106;SDS011;58763;47.982;11.516;2024-02-04T10:23:05;9.45;;;3.58;;
71106;SDS011;58763;47.982;11.516;2024-02-04T10:25:30;10.57;;;3.22;;
71106;SDS011;58763;47.982;11.516;2024-02-04T10:27:57;11.85;;;3.40;;
71106;SDS011;58763;47.982;11.516;2024-02-04T10:30:26;9.48;;;3.38;;
71106;SDS011;58763;47.982;11.516;2024-02-04T10:32:52;8.30;;;3.17;;
71106;SDS011;58763;47.982;11.516;2024-02-04T10:35:21;8.60;;;3.67;;
71106;SDS011;58763;47.982;11.516;2024-02-04T10:37:51;9.13;;;3.67;;
71106;SDS011;58763;47.982;11.516;2024-02-04T10:40:18;10.55;;;3.22;;
71106;SDS011;58763;47.982;11.516;2024-02-04T10:42:44;10.48;;;3.10;;
71106;SDS011;58763;47.982;11.516;2024-02-04T10:45:11;10.85;;;3.67;;
71106;SDS011;58763;47.982;11.516;2024-02-04T10:47:37;7.60;;;2.92;;
71106;SDS011;58763;47.982;11.516;2024-02-04T10:50:04;7.00;;;3.20;;
71106;SDS011;58763;47.982;11.516;2024-02-04T10:52:34;7.32;;;2.70;;
71106;SDS011;58763;47.982;11.516;2024-02-04T10:55:08;7.68;;;2.70;;
71106;SDS011;58763;47.982;11.516;2024-02-04T10:57:35;8.57;;;3.72;;
71106;SDS011;58763;47.982;11.516;2024-02-04T11:00:02;8.95;;;2.60;;
71106;SDS011;58763;47.982;11.516;2024-02-04T11:02:34;7.20;;;2.60;;
71106;SDS011;58763;47.982;11.516;2024-02-04T11:05:02;6.63;;;2.50;;
71106;SDS011;58763;47.982;11.516;2024-02-04T11:07:31;8.27;;;2.85;;
71106;SDS011;58763;47.982;11.516;2024-02-04T11:09:57;8.65;;;2.78;;
71106;SDS011;58763;47.982;11.516;2024-02-04T11:12:23;8.65;;;2.17;;
71106;SDS011;58763;47.982;11.516;2024-02-04T11:14:51;7.15;;;2.30;;
71106;SDS011;58763;47.982;11.516;2024-02-04T11:25:27;7.20;;;4.47;;
71106;SDS011;58763;47.982;11.516;2024-02-04T11:28:09;5.18;;;1.98;;
71106;SDS011;58763;47.982;11.516;2024-02-04T11:30:38;6.97;;;1.67;;
71106;SDS011;58763;47.982;11.516;2024-02-04T11:33:05;5.57;;;2.03;;
71106;SDS011;58763;47.982;11.516;2024-02-04T11:35:34;7.63;;;2.08;;
71106;SDS011;58763;47.982;11.516;2024-02-04T11:38:02;4.95;;;1.73;;
71106;SDS011;58763;47.982;11.516;2024-02-04T11:40:34;10.40;;;1.88;;
71106;SDS011;58763;47.982;11.516;2024-02-04T11:43:05;5.85;;;1.90;;
71106;SDS011;58763;47.982;11.516;2024-02-04T11:45:32;5.22;;;1.73;;
71106;SDS011;58763;47.982;11.516;2024-02-04T11:48:06;6.53;;;1.88;;
71106;SDS011;58763;47.982;11.516;2024-02-04T11:50:36;6.68;;;2.00;;
71106;SDS011;58763;47.982;11.516;2024-02-04T11:53:07;5.85;;;1.73;;
71106;SDS011;58763;47.982;11.516;2024-02-04T11:55:38;7.35;;;1.67;;
71106;SDS011;58763;47.982;11.516;2024-02-04T11:58:06;5.97;;;1.60;;
71106;SDS011;58763;47.982;11.516;2024-02-04T12:00:35;6.63;;;2.05;;
71106;SDS011;58763;47.982;11.516;2024-02-04T12:03:05;9.85;;;2.08;;
71106;SDS011;58763;47.982;11.516;2024-02-04T12:05:32;7.15;;;1.83;;
71106;SDS011;58763;47.982;11.516;2024-02-04T12:08:02;7.80;;;2.15;;
71106;SDS011;58763;47.982;11.516;2024-02-04T12:10:33;8.07;;;2.50;;
71106;SDS011;58763;47.982;11.516;2024-02-04T12:13:04;8.98;;;2.10;;
71106;SDS011;58763;47.982;11.516;2024-02-04T12:15:33;6.35;;;2.10;;
71106;SDS011;58763;47.982;11.516;2024-02-04T12:18:10;7.40;;;2.10;;
71106;SDS011;58763;47.982;11.516;2024-02-04T12:20:37;6.97;;;2.20;;
71106;SDS011;58763;47.982;11.516;2024-02-04T12:23:03;7.30;;;1.90;;
71106;SDS011;58763;47.982;11.516;2024-02-04T12:25:30;4.97;;;1.88;;
71106;SDS011;58763;47.982;11.516;2024-02-04T12:28:00;6.38;;;1.90;;
71106;SDS011;58763;47.982;11.516;2024-02-04T12:30:28;10.52;;;2.10;;
71106;SDS011;58763;47.982;11.516;2024-02-04T12:32:56;5.13;;;2.03;;
71106;SDS011;58763;47.982;11.516;2024-02-04T12:35:25;6.67;;;2.00;;
71106;SDS011;58763;47.982;11.516;2024-02-04T12:37:57;7.40;;;2.20;;
71106;SDS011;58763;47.982;11.516;2024-02-04T12:42:56;9.80;;;1.65;;
71106;SDS011;58763;47.982;11.516;2024-02-04T12:45:26;6.70;;;1.55;;
71106;SDS011;58763;47.982;11.516;2024-02-04T12:47:57;8.45;;;1.80;;
71106;SDS011;58763;47.982;11.516;2024-02-04T12:50:24;7.10;;;1.52;;
71106;SDS011;58763;47.982;11.516;2024-02-04T12:53:01;5.97;;;1.70;;
71106;SDS011;58763;47.982;11.516;2024-02-04T12:55:29;4.53;;;1.60;;
71106;SDS011;58763;47.982;11.516;2024-02-04T12:58:08;6.65;;;1.30;;
71106;SDS011;58763;47.982;11.516;2024-02-04T13:00:37;8.35;;;1.40;;
71106;SDS011;58763;47.982;11.516;2024-02-04T13:03:04;4.03;;;1.50;;
71106;SDS011;58763;47.982;11.516;2024-02-04T13:05:33;4.93;;;1.45;;
71106;SDS011;58763;47.982;11.516;2024-02-04T13:08:00;3.90;;;1.67;;
71106;SDS011;58763;47.982;11.516;2024-02-04T13:10:27;5.85;;;1.50;;
71106;SDS011;58763;47.982;11.516;2024-02-04T13:13:05;5.05;;;1.67;;
71106;SDS011;58763;47.982;11.516;2024-02-04T13:15:33;4.20;;;1.40;;
71106;SDS011;58763;47.982;11.516;2024-02-04T13:18:02;6.93;;;1.20;;
71106;SDS011;58763;47.982;11.516;2024-02-04T13:20:27;6.93;;;1.25;;
71106;SDS011;58763;47.982;11.516;2024-02-04T13:22:53;5.25;;;1.58;;
71106;SDS011;58763;47.982;11.516;2024-02-04T13:25:19;4.47;;;1.70;;
71106;SDS011;58763;47.982;11.516;2024-02-04T13:27:47;6.70;;;2.38;;
71106;SDS011;58763;47.982;11.516;2024-02-04T13:30:17;8.23;;;1.75;;
71106;SDS011;58763;47.982;11.516;2024-02-04T13:32:44;5.72;;;1.60;;
71106;SDS011;58763;47.982;11.516;2024-02-04T13:35:11;5.05;;;1.55;;
71106;SDS011;58763;47.982;11.516;2024-02-04T13:37:40;5.45;;;1.27;;
71106;SDS011;58763;47.982;11.516;2024-02-04T13:40:07;7.03;;;1.55;;
71106;SDS011;58763;47.982;11.516;2024-02-04T13:42:34;6.75;;;1.48;;
71106;SDS011;58763;47.982;11.516;2024-02-04T13:45:00;8.73;;;1.50;;
71106;SDS011;58763;47.982;11.516;2024-02-04T13:47:27;10.05;;;1.40;;
71106;SDS011;58763;47.982;11.516;2024-02-04T13:49:53;4.25;;;1.00;;
71106;SDS011;58763;47.982;11.516;2024-02-04T13:52:20;4.35;;;1.30;;
71106;SDS011;58763;47.982;11.516;2024-02-04T13:54:46;4.97;;;1.00;;
71106;SDS011;58763;47.982;11.516;2024-02-04T13:57:11;3.13;;;1.00;;
71106;SDS011;58763;47.982;11.516;2024-02-04T13:59:37;4.13;;;0.73;;
71106;SDS011;58763;47.982;11.516;2024-02-04T14:02:02;3.58;;;0.80;;
71106;SDS011;58763;47.982;11.516;2024-02-04T14:04:29;2.72;;;0.80;;
71106;SDS011;58763;47.982;11.516;2024-02-04T14:06:55;3.92;;;0.73;;
71106;SDS011;58763;47.982;11.516;2024-02-04T14:09:21;5.90;;;0.63;;
71106;SDS011;58763;47.982;11.516;2024-02-04T14:11:47;3.35;;;0.63;;
71106;SDS011;58763;47.982;11.516;2024-02-04T14:14:13;3.28;;;0.63;;
71106;SDS011;58763;47.982;11.516;2024-02-04T14:16:39;4.07;;;1.00;;
71106;SDS011;58763;47.982;11.516;2024-02-04T14:19:05;5.50;;;0.80;;
71106;SDS011;58763;47.982;11.516;2024-02-04T14:21:30;5.68;;;1.00;;
71106;SDS011;58763;47.982;11.516;2024-02-04T14:23:56;5.13;;;0.90;;
71106;SDS011;58763;47.982;11.516;2024-02-04T14:26:21;3.13;;;0.77;;
71106;SDS011;58763;47.982;11.516;2024-02-04T14:28:47;7.35;;;0.93;;
71106;SDS011;58763;47.982;11.516;2024-02-04T14:31:13;2.13;;;0.60;;
71106;SDS011;58763;47.982;11.516;2024-02-04T14:33:39;3.20;;;0.98;;
71106;SDS011;58763;47.982;11.516;2024-02-04T14:36:06;4.40;;;0.90;;
71106;SDS011;58763;47.982;11.516;2024-02-04T14:38:32;2.72;;;0.60;;
71106;SDS011;58763;47.982;11.516;2024-02-04T14:40:58;3.65;;;0.80;;
71106;SDS011;58763;47.982;11.516;2024-02-04T14:43:24;2.25;;;0.63;;